sensor_id;sensor_type;location;lat;lon;timestamp;P1;durP1;ratioP1;P2;durP2;ratioP2
20567;SDS011;10442;49.932;11.592;2022-08-04T00:00:13;2.65;;;2.45;;
20567;SDS011;10442;49.932;11.592;2022-08-04T00:05:38;2.92;;;2.72;;
20567;SDS011;10442;49.932;11.592;2022-08-04T00:08:25;2.75;;;2.55;;
20567;SDS011;10442;49.932;11.592;2022-08-04T00:11:01;2.92;;;2.72;;
20567;SDS011;10442;49.932;11.592;2022-08-04T00:13:30;2.90;;;2.67;;
20567;SDS011;10442;49.932;11.592;2022-08-04T00:16:04;3.53;;;2.33;;
20567;SDS011;10442;49.932;11.592;2022-08-04T00:18:37;3.67;;;3.38;;
20567;SDS011;10442;49.932;11.592;2022-08-04T00:21:09;3.10;;;2.90;;
20567;SDS011;10442;49.932;11.592;2022-08-04T00:23:42;3.13;;;2.88;;
20567;SDS011;10442;49.932;11.592;2022-08-04T00:26:31;2.83;;;2.47;;
20567;SDS011;10442;49.932;11.592;2022-08-04T00:28:59;3.80;;;2.88;;
20567;SDS011;10442;49.932;11.592;2022-08-04T00:31:27;3.05;;;2.75;;
20567;SDS011;10442;49.932;11.592;2022-08-04T00:34:15;3.85;;;3.15;;
20567;SDS011;10442;49.932;11.592;2022-08-04T00:36:43;3.20;;;2.75;;
20567;SDS011;10442;49.932;11.592;2022-08-04T00:39:12;4.22;;;3.05;;
20567;SDS011;10442;49.932;11.592;2022-08-04T00:44:41;4.35;;;2.90;;
20567;SDS011;10442;49.932;11.592;2022-08-04T00:50:29;2.78;;;2.58;;
20567;SDS011;10442;49.932;11.592;2022-08-04T00:53:12;2.47;;;2.38;;
20567;SDS011;10442;49.932;11.592;2022-08-04T00:58:46;3.22;;;2.83;;
20567;SDS011;10442;49.932;11.592;2022-08-04T01:12:59;3.72;;;3.05;;
20567;SDS011;10442;49.932;11.592;2022-08-04T01:16:04;3.90;;;3.10;;
20567;SDS011;10442;49.932;11.592;2022-08-04T01:21:16;3.40;;;3.10;;
20567;SDS011;10442;49.932;11.592;2022-08-04T01:29:27;3.15;;;2.95;;
20567;SDS011;10442;49.932;11.592;2022-08-04T01:32:23;2.75;;;2.55;;
20567;SDS011;10442;49.932;11.592;2022-08-04T01:40:49;4.70;;;3.20;;
20567;SDS011;10442;49.932;11.592;2022-08-04T01:43:19;3.17;;;2.65;;
20567;SDS011;10442;49.932;11.592;2022-08-04T01:45:51;3.00;;;2.80;;
20567;SDS011;10442;49.932;11.592;2022-08-04T01:48:24;2.88;;;2.55;;
20567;SDS011;10442;49.932;11.592;2022-08-04T01:50:53;3.50;;;2.88;;
20567;SDS011;10442;49.932;11.592;2022-08-04T01:53:30;4.80;;;3.28;;
20567;SDS011;10442;49.932;11.592;2022-08-04T01:56:00;3.63;;;3.33;;
20567;SDS011;10442;49.932;11.592;2022-08-04T01:58:29;3.72;;;3.40;;
20567;SDS011;10442;49.932;11.592;2022-08-04T02:00:59;3.03;;;2.83;;
20567;SDS011;10442;49.932;11.592;2022-08-04T02:03:35;3.15;;;2.92;;
20567;SDS011;10442;49.932;11.592;2022-08-04T02:06:31;2.97;;;2.78;;
20567;SDS011;10442;49.932;11.592;2022-08-04T02:12:24;3.30;;;3.10;;
20567;SDS011;10442;49.932;11.592;2022-08-04T02:20:37;4.55;;;2.67;;
20567;SDS011;10442;49.932;11.592;2022-08-04T02:23:07;2.88;;;2.67;;
20567;SDS011;10442;49.932;11.592;2022-08-04T02:25:38;2.95;;;2.75;;
20567;SDS011;10442;49.932;11.592;2022-08-04T02:28:14;3.45;;;3.15;;
20567;SDS011;10442;49.932;11.592;2022-08-04T02:34:00;2.80;;;2.60;;
20567;SDS011;10442;49.932;11.592;2022-08-04T02:36:36;3.75;;;3.45;;
20567;SDS011;10442;49.932;11.592;2022-08-04T02:39:06;2.60;;;2.40;;
20567;SDS011;10442;49.932;11.592;2022-08-04T02:41:36;3.03;;;2.53;;
20567;SDS011;10442;49.932;11.592;2022-08-04T02:44:06;5.65;;;3.30;;
20567;SDS011;10442;49.932;11.592;2022-08-04T02:46:36;4.13;;;3.35;;
20567;SDS011;10442;49.932;11.592;2022-08-04T02:49:06;4.10;;;2.80;;
20567;SDS011;10442;49.932;11.592;2022-08-04T02:51:44;2.72;;;2.53;;
20567;SDS011;10442;49.932;11.592;2022-08-04T02:54:16;3.78;;;3.47;;
20567;SDS011;10442;49.932;11.592;2022-08-04T02:56:59;3.55;;;2.88;;
20567;SDS011;10442;49.932;11.592;2022-08-04T03:02:36;3.10;;;2.80;;
20567;SDS011;10442;49.932;11.592;2022-08-04T03:05:24;3.65;;;3.35;;
20567;SDS011;10442;49.932;11.592;2022-08-04T03:19:17;3.67;;;3.38;;
20567;SDS011;10442;49.932;11.592;2022-08-04T03:33:57;3.13;;;2.85;;
20567;SDS011;10442;49.932;11.592;2022-08-04T03:39:36;3.50;;;3.20;;
20567;SDS011;10442;49.932;11.592;2022-08-04T03:42:15;8.55;;;3.63;;
20567;SDS011;10442;49.932;11.592;2022-08-04T03:56:41;4.38;;;3.38;;
20567;SDS011;10442;49.932;11.592;2022-08-04T04:08:12;5.05;;;4.40;;
20567;SDS011;10442;49.932;11.592;2022-08-04T04:11:01;5.00;;;4.57;;
20567;SDS011;10442;49.932;11.592;2022-08-04T04:16:24;4.20;;;3.80;;
20567;SDS011;10442;49.932;11.592;2022-08-04T04:21:57;3.95;;;3.67;;
20567;SDS011;10442;49.932;11.592;2022-08-04T04:24:35;3.80;;;3.47;;
20567;SDS011;10442;49.932;11.592;2022-08-04T04:35:26;6.60;;;3.47;;
20567;SDS011;10442;49.932;11.592;2022-08-04T04:38:08;4.53;;;3.58;;
20567;SDS011;10442;49.932;11.592;2022-08-04T04:40:58;3.72;;;3.38;;
20567;SDS011;10442;49.932;11.592;2022-08-04T04:43:42;4.43;;;4.13;;
20567;SDS011;10442;49.932;11.592;2022-08-04T04:49:13;4.18;;;3.88;;
20567;SDS011;10442;49.932;11.592;2022-08-04T04:52:17;4.90;;;3.63;;
20567;SDS011;10442;49.932;11.592;2022-08-04T04:57:59;5.88;;;3.80;;
20567;SDS011;10442;49.932;11.592;2022-08-04T05:00:54;4.22;;;3.42;;
20567;SDS011;10442;49.932;11.592;2022-08-04T05:09:03;3.53;;;3.22;;
20567;SDS011;10442;49.932;11.592;2022-08-04T05:14:28;3.60;;;3.30;;
20567;SDS011;10442;49.932;11.592;2022-08-04T05:17:12;3.63;;;3.30;;
20567;SDS011;10442;49.932;11.592;2022-08-04T05:19:58;3.70;;;3.40;;
20567;SDS011;10442;49.932;11.592;2022-08-04T05:25:20;4.97;;;3.58;;
20567;SDS011;10442;49.932;11.592;2022-08-04T05:30:29;3.90;;;3.42;;
20567;SDS011;10442;49.932;11.592;2022-08-04T05:33:06;9.75;;;3.15;;
20567;SDS011;10442;49.932;11.592;2022-08-04T05:35:41;3.30;;;3.08;;
20567;SDS011;10442;49.932;11.592;2022-08-04T05:38:33;3.35;;;2.50;;
20567;SDS011;10442;49.932;11.592;2022-08-04T05:41:03;3.42;;;3.03;;
20567;SDS011;10442;49.932;11.592;2022-08-04T05:43:33;4.90;;;2.72;;
20567;SDS011;10442;49.932;11.592;2022-08-04T05:46:03;3.00;;;2.80;;
20567;SDS011;10442;49.932;11.592;2022-08-04T05:48:32;3.08;;;2.88;;
20567;SDS011;10442;49.932;11.592;2022-08-04T05:51:01;3.00;;;2.78;;
20567;SDS011;10442;49.932;11.592;2022-08-04T05:53:30;3.95;;;2.80;;
20567;SDS011;10442;49.932;11.592;2022-08-04T05:56:00;3.00;;;2.35;;
20567;SDS011;10442;49.932;11.592;2022-08-04T05:58:29;3.83;;;2.92;;
20567;SDS011;10442;49.932;11.592;2022-08-04T06:00:58;3.10;;;2.88;;
20567;SDS011;10442;49.932;11.592;2022-08-04T06:03:30;3.13;;;2.83;;
20567;SDS011;10442;49.932;11.592;2022-08-04T06:06:00;6.53;;;3.72;;
20567;SDS011;10442;49.932;11.592;2022-08-04T06:08:30;12.65;;;5.78;;
20567;SDS011;10442;49.932;11.592;2022-08-04T06:10:58;17.35;;;5.03;;
20567;SDS011;10442;49.932;11.592;2022-08-04T06:13:33;15.00;;;4.50;;
20567;SDS011;10442;49.932;11.592;2022-08-04T06:16:15;19.00;;;4.60;;
20567;SDS011;10442;49.932;11.592;2022-08-04T06:18:58;11.70;;;3.92;;
20567;SDS011;10442;49.932;11.592;2022-08-04T06:21:49;11.30;;;4.10;;
20567;SDS011;10442;49.932;11.592;2022-08-04T06:24:19;4.85;;;3.28;;
20567;SDS011;10442;49.932;11.592;2022-08-04T06:26:50;7.22;;;3.00;;
20567;SDS011;10442;49.932;11.592;2022-08-04T06:29:19;6.07;;;2.42;;
20567;SDS011;10442;49.932;11.592;2022-08-04T06:31:53;3.13;;;2.28;;
20567;SDS011;10442;49.932;11.592;2022-08-04T06:34:44;2.22;;;2.13;;
20567;SDS011;10442;49.932;11.592;2022-08-04T06:37:12;2.95;;;1.98;;
20567;SDS011;10442;49.932;11.592;2022-08-04T06:40:01;2.72;;;1.63;;
20567;SDS011;10442;49.932;11.592;2022-08-04T06:42:50;2.53;;;1.70;;
20567;SDS011;10442;49.932;11.592;2022-08-04T06:45:19;1.60;;;1.50;;
20567;SDS011;10442;49.932;11.592;2022-08-04T06:47:47;1.77;;;1.67;;
20567;SDS011;10442;49.932;11.592;2022-08-04T06:50:16;1.60;;;1.50;;
20567;SDS011;10442;49.932;11.592;2022-08-04T06:53:04;4.70;;;1.98;;
20567;SDS011;10442;49.932;11.592;2022-08-04T06:55:32;2.97;;;1.90;;
20567;SDS011;10442;49.932;11.592;2022-08-04T06:58:01;2.30;;;1.38;;
20567;SDS011;10442;49.932;11.592;2022-08-04T07:00:30;3.00;;;1.70;;
20567;SDS011;10442;49.932;11.592;2022-08-04T07:02:59;2.30;;;1.85;;
20567;SDS011;10442;49.932;11.592;2022-08-04T07:05:28;2.45;;;1.85;;
20567;SDS011;10442;49.932;11.592;2022-08-04T07:07:56;1.95;;;1.75;;
20567;SDS011;10442;49.932;11.592;2022-08-04T07:10:25;2.65;;;1.95;;
20567;SDS011;10442;49.932;11.592;2022-08-04T07:12:55;2.28;;;1.77;;
20567;SDS011;10442;49.932;11.592;2022-08-04T07:15:24;1.85;;;1.75;;
20567;SDS011;10442;49.932;11.592;2022-08-04T07:17:53;5.35;;;1.73;;
20567;SDS011;10442;49.932;11.592;2022-08-04T07:20:29;2.13;;;1.92;;
20567;SDS011;10442;49.932;11.592;2022-08-04T07:23:03;1.50;;;1.40;;
20567;SDS011;10442;49.932;11.592;2022-08-04T07:25:33;3.05;;;1.88;;
20567;SDS011;10442;49.932;11.592;2022-08-04T07:28:23;1.83;;;1.73;;
20567;SDS011;10442;49.932;11.592;2022-08-04T07:30:55;1.98;;;1.70;;
20567;SDS011;10442;49.932;11.592;2022-08-04T07:33:24;1.27;;;1.27;;
20567;SDS011;10442;49.932;11.592;2022-08-04T07:35:53;1.77;;;1.50;;
20567;SDS011;10442;49.932;11.592;2022-08-04T07:38:40;1.95;;;1.85;;
20567;SDS011;10442;49.932;11.592;2022-08-04T07:41:21;1.67;;;1.58;;
20567;SDS011;10442;49.932;11.592;2022-08-04T07:44:07;4.47;;;2.28;;
20567;SDS011;10442;49.932;11.592;2022-08-04T07:46:35;1.73;;;1.60;;
20567;SDS011;10442;49.932;11.592;2022-08-04T07:49:03;2.80;;;1.38;;
20567;SDS011;10442;49.932;11.592;2022-08-04T07:51:32;2.83;;;1.80;;
20567;SDS011;10442;49.932;11.592;2022-08-04T07:54:02;2.10;;;1.80;;
20567;SDS011;10442;49.932;11.592;2022-08-04T07:56:32;1.38;;;1.27;;
20567;SDS011;10442;49.932;11.592;2022-08-04T07:59:02;1.95;;;1.85;;
20567;SDS011;10442;49.932;11.592;2022-08-04T08:01:30;2.47;;;1.40;;
20567;SDS011;10442;49.932;11.592;2022-08-04T08:03:58;1.83;;;1.73;;
20567;SDS011;10442;49.932;11.592;2022-08-04T08:06:27;2.72;;;1.88;;
20567;SDS011;10442;49.932;11.592;2022-08-04T08:08:59;4.90;;;2.50;;
20567;SDS011;10442;49.932;11.592;2022-08-04T08:11:40;2.40;;;1.45;;
20567;SDS011;10442;49.932;11.592;2022-08-04T08:14:29;3.88;;;2.17;;
20567;SDS011;10442;49.932;11.592;2022-08-04T08:16:58;5.00;;;2.00;;
20567;SDS011;10442;49.932;11.592;2022-08-04T08:19:31;5.18;;;1.58;;
20567;SDS011;10442;49.932;11.592;2022-08-04T08:22:01;3.50;;;1.48;;
20567;SDS011;10442;49.932;11.592;2022-08-04T08:24:31;1.63;;;1.45;;
20567;SDS011;10442;49.932;11.592;2022-08-04T08:27:02;3.95;;;2.00;;
20567;SDS011;10442;49.932;11.592;2022-08-04T08:29:32;5.80;;;2.25;;
20567;SDS011;10442;49.932;11.592;2022-08-04T08:32:01;2.50;;;1.90;;
20567;SDS011;10442;49.932;11.592;2022-08-04T08:34:34;1.75;;;1.65;;
20567;SDS011;10442;49.932;11.592;2022-08-04T09:17:39;9.20;;;3.00;;
20567;SDS011;10442;49.932;11.592;2022-08-04T09:20:16;1.52;;;1.42;;
20567;SDS011;10442;49.932;11.592;2022-08-04T09:23:05;2.88;;;1.38;;
20567;SDS011;10442;49.932;11.592;2022-08-04T09:25:48;2.35;;;2.00;;
20567;SDS011;10442;49.932;11.592;2022-08-04T09:28:50;1.60;;;1.50;;
20567;SDS011;10442;49.932;11.592;2022-08-04T09:32:06;3.13;;;1.50;;
20567;SDS011;10442;49.932;11.592;2022-08-04T09:34:46;1.00;;;1.00;;
20567;SDS011;10442;49.932;11.592;2022-08-04T09:37:41;5.65;;;1.42;;
20567;SDS011;10442;49.932;11.592;2022-08-04T09:40:32;1.88;;;1.60;;
20567;SDS011;10442;49.932;11.592;2022-08-04T09:55:12;3.40;;;1.70;;
20567;SDS011;10442;49.932;11.592;2022-08-04T10:00:52;1.60;;;1.50;;
20567;SDS011;10442;49.932;11.592;2022-08-04T10:03:28;1.40;;;1.40;;
20567;SDS011;10442;49.932;11.592;2022-08-04T10:11:54;1.67;;;1.58;;
20567;SDS011;10442;49.932;11.592;2022-08-04T10:14:50;23.77;;;3.47;;
20567;SDS011;10442;49.932;11.592;2022-08-04T10:25:48;2.30;;;1.60;;
20567;SDS011;10442;49.932;11.592;2022-08-04T10:28:40;1.67;;;1.58;;
20567;SDS011;10442;49.932;11.592;2022-08-04T10:31:18;5.85;;;2.08;;
20567;SDS011;10442;49.932;11.592;2022-08-04T10:33:49;2.33;;;1.70;;
20567;SDS011;10442;49.932;11.592;2022-08-04T10:36:21;3.53;;;1.20;;
20567;SDS011;10442;49.932;11.592;2022-08-04T10:39:00;1.85;;;1.30;;
20567;SDS011;10442;49.932;11.592;2022-08-04T10:41:44;1.95;;;1.85;;
20567;SDS011;10442;49.932;11.592;2022-08-04T10:47:23;2.63;;;2.13;;
20567;SDS011;10442;49.932;11.592;2022-08-04T10:49:58;1.75;;;1.67;;
20567;SDS011;10442;49.932;11.592;2022-08-04T10:55:17;1.60;;;1.50;;
20567;SDS011;10442;49.932;11.592;2022-08-04T11:00:18;2.13;;;1.95;;
20567;SDS011;10442;49.932;11.592;2022-08-04T11:05:35;3.75;;;2.25;;
20567;SDS011;10442;49.932;11.592;2022-08-04T11:08:24;3.05;;;1.70;;
20567;SDS011;10442;49.932;11.592;2022-08-04T11:11:08;6.00;;;2.67;;
20567;SDS011;10442;49.932;11.592;2022-08-04T11:16:16;2.63;;;1.73;;
20567;SDS011;10442;49.932;11.592;2022-08-04T11:19:04;5.70;;;5.30;;
20567;SDS011;10442;49.932;11.592;2022-08-04T11:22:14;9.52;;;2.78;;
20567;SDS011;10442;49.932;11.592;2022-08-04T11:24:52;2.95;;;1.58;;
20567;SDS011;10442;49.932;11.592;2022-08-04T11:27:39;5.10;;;2.10;;
20567;SDS011;10442;49.932;11.592;2022-08-04T11:30:25;2.38;;;2.10;;
20567;SDS011;10442;49.932;11.592;2022-08-04T11:33:22;1.85;;;1.75;;
20567;SDS011;10442;49.932;11.592;2022-08-04T11:36:19;5.53;;;2.00;;
20567;SDS011;10442;49.932;11.592;2022-08-04T11:39:14;2.15;;;1.95;;
20567;SDS011;10442;49.932;11.592;2022-08-04T11:45:00;2.05;;;1.52;;
20567;SDS011;10442;49.932;11.592;2022-08-04T11:50:37;1.45;;;1.38;;
20567;SDS011;10442;49.932;11.592;2022-08-04T11:53:23;1.73;;;1.60;;
20567;SDS011;10442;49.932;11.592;2022-08-04T11:56:04;2.15;;;1.90;;
20567;SDS011;10442;49.932;11.592;2022-08-04T11:58:39;2.10;;;2.00;;
20567;SDS011;10442;49.932;11.592;2022-08-04T12:03:59;2.17;;;1.90;;
20567;SDS011;10442;49.932;11.592;2022-08-04T12:06:47;1.83;;;1.73;;
20567;SDS011;10442;49.932;11.592;2022-08-04T12:09:59;2.03;;;1.90;;
20567;SDS011;10442;49.932;11.592;2022-08-04T12:13:19;2.58;;;2.38;;
20567;SDS011;10442;49.932;11.592;2022-08-04T12:15:55;18.17;;;3.17;;
20567;SDS011;10442;49.932;11.592;2022-08-04T12:18:52;2.70;;;1.85;;
20567;SDS011;10442;49.932;11.592;2022-08-04T12:24:04;5.65;;;2.05;;
20567;SDS011;10442;49.932;11.592;2022-08-04T12:26:48;2.35;;;2.00;;
20567;SDS011;10442;49.932;11.592;2022-08-04T12:29:19;2.25;;;1.58;;
20567;SDS011;10442;49.932;11.592;2022-08-04T12:34:47;3.95;;;1.70;;
20567;SDS011;10442;49.932;11.592;2022-08-04T12:40:24;3.00;;;2.08;;
20567;SDS011;10442;49.932;11.592;2022-08-04T12:43:01;2.30;;;2.08;;
20567;SDS011;10442;49.932;11.592;2022-08-04T12:45:34;1.83;;;1.73;;
20567;SDS011;10442;49.932;11.592;2022-08-04T12:48:07;2.22;;;2.03;;
20567;SDS011;10442;49.932;11.592;2022-08-04T12:50:36;4.03;;;2.08;;
20567;SDS011;10442;49.932;11.592;2022-08-04T12:53:11;3.35;;;1.85;;
20567;SDS011;10442;49.932;11.592;2022-08-04T12:55:58;2.67;;;1.80;;
20567;SDS011;10442;49.932;11.592;2022-08-04T12:58:29;4.13;;;1.67;;
20567;SDS011;10442;49.932;11.592;2022-08-04T13:01:11;2.00;;;1.90;;
20567;SDS011;10442;49.932;11.592;2022-08-04T13:04:11;2.88;;;1.83;;
20567;SDS011;10442;49.932;11.592;2022-08-04T13:06:41;1.40;;;1.40;;
20567;SDS011;10442;49.932;11.592;2022-08-04T13:09:13;4.70;;;2.10;;
20567;SDS011;10442;49.932;11.592;2022-08-04T13:11:55;3.92;;;1.75;;
20567;SDS011;10442;49.932;11.592;2022-08-04T13:14:28;4.90;;;2.08;;
20567;SDS011;10442;49.932;11.592;2022-08-04T13:16:59;3.92;;;2.08;;
20567;SDS011;10442;49.932;11.592;2022-08-04T13:19:28;2.05;;;1.60;;
20567;SDS011;10442;49.932;11.592;2022-08-04T13:21:57;1.88;;;1.70;;
20567;SDS011;10442;49.932;11.592;2022-08-04T13:24:30;3.90;;;2.10;;
20567;SDS011;10442;49.932;11.592;2022-08-04T13:27:20;1.40;;;1.30;;
20567;SDS011;10442;49.932;11.592;2022-08-04T13:29:49;7.00;;;1.85;;
20567;SDS011;10442;49.932;11.592;2022-08-04T13:32:28;3.25;;;2.13;;
20567;SDS011;10442;49.932;11.592;2022-08-04T13:34:56;2.10;;;1.90;;
20567;SDS011;10442;49.932;11.592;2022-08-04T13:37:32;2.30;;;1.70;;
20567;SDS011;10442;49.932;11.592;2022-08-04T13:40:06;2.35;;;2.15;;
20567;SDS011;10442;49.932;11.592;2022-08-04T13:42:37;1.58;;;1.40;;
20567;SDS011;10442;49.932;11.592;2022-08-04T13:45:07;2.28;;;1.60;;
20567;SDS011;10442;49.932;11.592;2022-08-04T13:47:38;3.58;;;1.40;;
20567;SDS011;10442;49.932;11.592;2022-08-04T13:50:12;1.38;;;1.38;;
20567;SDS011;10442;49.932;11.592;2022-08-04T13:52:51;1.23;;;1.23;;
20567;SDS011;10442;49.932;11.592;2022-08-04T13:55:24;1.50;;;1.40;;
20567;SDS011;10442;49.932;11.592;2022-08-04T14:00:39;1.25;;;1.25;;
20567;SDS011;10442;49.932;11.592;2022-08-04T14:03:07;7.18;;;2.08;;
20567;SDS011;10442;49.932;11.592;2022-08-04T14:08:56;1.42;;;1.30;;
20567;SDS011;10442;49.932;11.592;2022-08-04T14:11:32;1.58;;;1.48;;
20567;SDS011;10442;49.932;11.592;2022-08-04T14:14:33;3.60;;;1.55;;
20567;SDS011;10442;49.932;11.592;2022-08-04T14:17:04;2.33;;;1.60;;
20567;SDS011;10442;49.932;11.592;2022-08-04T14:19:53;3.47;;;1.77;;
20567;SDS011;10442;49.932;11.592;2022-08-04T14:24:54;2.40;;;2.20;;
20567;SDS011;10442;49.932;11.592;2022-08-04T14:27:47;1.90;;;1.75;;
20567;SDS011;10442;49.932;11.592;2022-08-04T14:32:55;1.42;;;1.42;;
20567;SDS011;10442;49.932;11.592;2022-08-04T14:35:24;2.05;;;1.30;;
20567;SDS011;10442;49.932;11.592;2022-08-04T14:38:12;1.58;;;1.48;;
20567;SDS011;10442;49.932;11.592;2022-08-04T14:40:40;2.35;;;1.50;;
20567;SDS011;10442;49.932;11.592;2022-08-04T14:43:10;1.65;;;1.55;;
20567;SDS011;10442;49.932;11.592;2022-08-04T14:45:43;2.28;;;1.50;;
20567;SDS011;10442;49.932;11.592;2022-08-04T14:48:20;1.70;;;1.60;;
20567;SDS011;10442;49.932;11.592;2022-08-04T14:50:49;2.50;;;1.60;;
20567;SDS011;10442;49.932;11.592;2022-08-04T14:53:18;1.80;;;1.70;;
20567;SDS011;10442;49.932;11.592;2022-08-04T14:55:56;1.20;;;1.20;;
20567;SDS011;10442;49.932;11.592;2022-08-04T14:58:25;2.83;;;1.80;;
20567;SDS011;10442;49.932;11.592;2022-08-04T15:01:06;1.92;;;1.83;;
20567;SDS011;10442;49.932;11.592;2022-08-04T15:03:44;1.52;;;1.42;;
20567;SDS011;10442;49.932;11.592;2022-08-04T15:06:21;1.77;;;1.40;;
20567;SDS011;10442;49.932;11.592;2022-08-04T15:08:53;2.92;;;2.00;;
20567;SDS011;10442;49.932;11.592;2022-08-04T15:11:23;2.55;;;1.40;;
20567;SDS011;10442;49.932;11.592;2022-08-04T15:13:52;1.30;;;1.30;;
20567;SDS011;10442;49.932;11.592;2022-08-04T15:16:21;1.70;;;1.60;;
20567;SDS011;10442;49.932;11.592;2022-08-04T15:18:51;1.65;;;1.60;;
20567;SDS011;10442;49.932;11.592;2022-08-04T15:21:21;1.25;;;1.17;;
20567;SDS011;10442;49.932;11.592;2022-08-04T15:23:49;1.80;;;1.50;;
20567;SDS011;10442;49.932;11.592;2022-08-04T15:26:18;2.13;;;1.20;;
20567;SDS011;10442;49.932;11.592;2022-08-04T15:28:53;2.25;;;1.90;;
20567;SDS011;10442;49.932;11.592;2022-08-04T15:31:24;2.58;;;1.40;;
20567;SDS011;10442;49.932;11.592;2022-08-04T15:34:13;1.98;;;1.88;;
20567;SDS011;10442;49.932;11.592;2022-08-04T15:36:51;1.60;;;1.45;;
20567;SDS011;10442;49.932;11.592;2022-08-04T15:42:13;2.05;;;1.77;;
20567;SDS011;10442;49.932;11.592;2022-08-04T15:47:41;1.63;;;1.52;;
20567;SDS011;10442;49.932;11.592;2022-08-04T15:50:19;3.05;;;2.22;;
20567;SDS011;10442;49.932;11.592;2022-08-04T15:55:34;1.90;;;1.80;;
20567;SDS011;10442;49.932;11.592;2022-08-04T15:58:03;1.70;;;1.60;;
20567;SDS011;10442;49.932;11.592;2022-08-04T16:08:56;5.18;;;1.90;;
20567;SDS011;10442;49.932;11.592;2022-08-04T16:19:04;1.55;;;1.45;;
20567;SDS011;10442;49.932;11.592;2022-08-04T16:24:27;2.38;;;1.80;;
20567;SDS011;10442;49.932;11.592;2022-08-04T16:26:57;2.30;;;1.30;;
20567;SDS011;10442;49.932;11.592;2022-08-04T16:29:27;1.75;;;1.65;;
20567;SDS011;10442;49.932;11.592;2022-08-04T16:34:32;2.00;;;1.90;;
20567;SDS011;10442;49.932;11.592;2022-08-04T16:37:17;1.85;;;1.50;;
20567;SDS011;10442;49.932;11.592;2022-08-04T16:39:46;1.40;;;1.30;;
20567;SDS011;10442;49.932;11.592;2022-08-04T16:50:18;1.70;;;1.60;;
20567;SDS011;10442;49.932;11.592;2022-08-04T16:52:48;1.33;;;1.33;;
20567;SDS011;10442;49.932;11.592;2022-08-04T16:55:20;2.65;;;1.40;;
20567;SDS011;10442;49.932;11.592;2022-08-04T16:57:54;2.25;;;1.45;;
20567;SDS011;10442;49.932;11.592;2022-08-04T17:00:30;2.70;;;1.40;;
20567;SDS011;10442;49.932;11.592;2022-08-04T17:03:01;3.85;;;1.50;;
20567;SDS011;10442;49.932;11.592;2022-08-04T17:05:30;1.75;;;1.30;;
20567;SDS011;10442;49.932;11.592;2022-08-04T17:08:07;1.63;;;1.20;;
20567;SDS011;10442;49.932;11.592;2022-08-04T17:10:55;2.20;;;1.27;;
20567;SDS011;10442;49.932;11.592;2022-08-04T17:13:25;1.65;;;1.55;;
20567;SDS011;10442;49.932;11.592;2022-08-04T17:16:17;1.67;;;1.50;;
20567;SDS011;10442;49.932;11.592;2022-08-04T17:18:47;2.92;;;1.83;;
20567;SDS011;10442;49.932;11.592;2022-08-04T17:21:20;1.52;;;1.42;;
20567;SDS011;10442;49.932;11.592;2022-08-04T17:23:51;2.03;;;1.70;;
20567;SDS011;10442;49.932;11.592;2022-08-04T17:26:41;1.40;;;1.33;;
20567;SDS011;10442;49.932;11.592;2022-08-04T17:29:11;2.05;;;1.77;;
20567;SDS011;10442;49.932;11.592;2022-08-04T17:31:45;1.13;;;1.13;;
20567;SDS011;10442;49.932;11.592;2022-08-04T17:34:14;1.63;;;1.52;;
20567;SDS011;10442;49.932;11.592;2022-08-04T17:36:46;1.52;;;1.42;;
20567;SDS011;10442;49.932;11.592;2022-08-04T17:39:15;3.13;;;1.42;;
20567;SDS011;10442;49.932;11.592;2022-08-04T17:41:47;1.60;;;1.50;;
20567;SDS011;10442;49.932;11.592;2022-08-04T17:44:33;1.08;;;1.08;;
20567;SDS011;10442;49.932;11.592;2022-08-04T17:47:17;1.52;;;1.40;;
20567;SDS011;10442;49.932;11.592;2022-08-04T17:49:44;1.27;;;1.17;;
20567;SDS011;10442;49.932;11.592;2022-08-04T17:52:19;1.08;;;1.08;;
20567;SDS011;10442;49.932;11.592;2022-08-04T17:55:07;1.10;;;1.10;;
20567;SDS011;10442;49.932;11.592;2022-08-04T17:57:46;1.70;;;1.60;;
20567;SDS011;10442;49.932;11.592;2022-08-04T18:00:18;2.83;;;1.40;;
20567;SDS011;10442;49.932;11.592;2022-08-04T18:02:53;1.25;;;1.25;;
20567;SDS011;10442;49.932;11.592;2022-08-04T18:05:27;2.83;;;1.63;;
20567;SDS011;10442;49.932;11.592;2022-08-04T18:08:16;1.83;;;1.73;;
20567;SDS011;10442;49.932;11.592;2022-08-04T18:11:03;1.00;;;1.00;;
20567;SDS011;10442;49.932;11.592;2022-08-04T18:13:31;1.35;;;1.27;;
20567;SDS011;10442;49.932;11.592;2022-08-04T18:16:09;1.58;;;1.48;;
20567;SDS011;10442;49.932;11.592;2022-08-04T18:21:36;1.60;;;1.50;;
20567;SDS011;10442;49.932;11.592;2022-08-04T18:24:24;1.38;;;1.38;;
20567;SDS011;10442;49.932;11.592;2022-08-04T18:27:13;1.55;;;1.42;;
20567;SDS011;10442;49.932;11.592;2022-08-04T18:29:42;1.55;;;1.45;;
20567;SDS011;10442;49.932;11.592;2022-08-04T18:32:29;1.67;;;1.58;;
20567;SDS011;10442;49.932;11.592;2022-08-04T18:35:00;1.48;;;1.38;;
20567;SDS011;10442;49.932;11.592;2022-08-04T18:37:31;3.08;;;1.77;;
20567;SDS011;10442;49.932;11.592;2022-08-04T18:40:20;2.05;;;1.85;;
20567;SDS011;10442;49.932;11.592;2022-08-04T18:43:01;1.48;;;1.42;;
20567;SDS011;10442;49.932;11.592;2022-08-04T18:45:30;1.70;;;1.60;;
20567;SDS011;10442;49.932;11.592;2022-08-04T18:48:03;1.35;;;1.25;;
20567;SDS011;10442;49.932;11.592;2022-08-04T18:50:52;2.50;;;1.65;;
20567;SDS011;10442;49.932;11.592;2022-08-04T18:53:37;2.38;;;2.17;;
20567;SDS011;10442;49.932;11.592;2022-08-04T18:56:20;2.00;;;1.90;;
20567;SDS011;10442;49.932;11.592;2022-08-04T18:59:00;3.53;;;2.00;;
20567;SDS011;10442;49.932;11.592;2022-08-04T19:01:36;1.88;;;1.77;;
20567;SDS011;10442;49.932;11.592;2022-08-04T19:04:24;3.95;;;2.15;;
20567;SDS011;10442;49.932;11.592;2022-08-04T19:07:12;1.67;;;1.58;;
20567;SDS011;10442;49.932;11.592;2022-08-04T19:10:00;4.65;;;1.58;;
20567;SDS011;10442;49.932;11.592;2022-08-04T19:12:27;1.75;;;1.65;;
20567;SDS011;10442;49.932;11.592;2022-08-04T19:14:56;1.92;;;1.83;;
20567;SDS011;10442;49.932;11.592;2022-08-04T19:17:37;2.78;;;2.05;;
20567;SDS011;10442;49.932;11.592;2022-08-04T19:20:24;2.50;;;1.58;;
20567;SDS011;10442;49.932;11.592;2022-08-04T19:22:53;2.15;;;1.88;;
20567;SDS011;10442;49.932;11.592;2022-08-04T19:25:44;2.38;;;2.17;;
20567;SDS011;10442;49.932;11.592;2022-08-04T19:28:32;2.85;;;1.98;;
20567;SDS011;10442;49.932;11.592;2022-08-04T19:31:05;2.10;;;2.00;;
20567;SDS011;10442;49.932;11.592;2022-08-04T19:33:35;3.50;;;2.25;;
20567;SDS011;10442;49.932;11.592;2022-08-04T19:36:25;2.00;;;1.90;;
20567;SDS011;10442;49.932;11.592;2022-08-04T19:38:57;1.92;;;1.83;;
20567;SDS011;10442;49.932;11.592;2022-08-04T19:41:27;4.05;;;2.25;;
20567;SDS011;10442;49.932;11.592;2022-08-04T19:44:22;2.60;;;2.40;;
20567;SDS011;10442;49.932;11.592;2022-08-04T19:46:50;2.60;;;2.40;;
20567;SDS011;10442;49.932;11.592;2022-08-04T19:49:19;2.25;;;2.05;;
20567;SDS011;10442;49.932;11.592;2022-08-04T19:52:07;2.80;;;2.42;;
20567;SDS011;10442;49.932;11.592;2022-08-04T19:54:35;2.70;;;2.50;;
20567;SDS011;10442;49.932;11.592;2022-08-04T19:57:06;2.17;;;2.08;;
20567;SDS011;10442;49.932;11.592;2022-08-04T19:59:37;2.58;;;2.38;;
20567;SDS011;10442;49.932;11.592;2022-08-04T20:02:14;2.92;;;2.72;;
20567;SDS011;10442;49.932;11.592;2022-08-04T20:04:41;2.17;;;2.05;;
20567;SDS011;10442;49.932;11.592;2022-08-04T20:07:09;3.15;;;2.95;;
20567;SDS011;10442;49.932;11.592;2022-08-04T20:09:40;2.75;;;2.58;;
20567;SDS011;10442;49.932;11.592;2022-08-04T20:12:19;4.05;;;2.53;;
20567;SDS011;10442;49.932;11.592;2022-08-04T20:14:47;2.95;;;2.75;;